Costa Mediterranea — IBCF — position and weather

sailwx.info

Track history (hours):
 
Tides and Currents Weather Stations Pressure Air Temp Water Temp Dewpoint Dewpoint Depression Visibility Wind Speed Wind Dir Waves Ship Positions

Costa Mediterranea

Last reported at 2017-May-25 10:24 UTC. Time now 2017-May-25 10:32 UTC.
Position N 38°43' W 009°08'.

Length 293 m; draft 8 m.

Type: Passenger vessel. MMSI: 247088200.

Date/timePositionNaut miles runAvg speedWind from/ knotsBaromVisibWave heightAir tempDewpointWater temp
2017-May-25 10:24N 38°43' W 009°08'0 0.0
2017-May-25 10:00N 38°43' W 009°08'0 0.0
2017-May-25 09:30N 38°43' W 009°08'0 0.0
2017-May-25 08:59N 38°43' W 009°08'0 0.0
2017-May-25 08:29N 38°43' W 009°08'0 0.0
2017-May-25 07:59N 38°43' W 009°08'0 0.0
2017-May-25 07:27N 38°43' W 009°08'0 0.0
2017-May-25 06:59N 38°43' W 009°08'0 0.0
2017-May-25 06:29N 38°43' W 009°08'0 0.3
2017-May-25 06:00N 38°42' W 009°08'4 7.4
2017-May-25 05:28N 38°41' W 009°12'511.3
2017-May-25 05:00N 38°40' W 009°19'918.7
2017-May-25 04:30N 38°32' W 009°25'1020.6
2017-May-25 04:00N 38°21' W 009°27'1020.2
2017-May-25 03:30N 38°11' W 009°25'1020.4
2017-May-25 03:00N 38°01' W 009°24'1020.6
2017-May-25 02:30N 37°51' W 009°24'1020.4
2017-May-25 02:00N 37°41' W 009°23'1020.4
2017-May-25 01:30N 37°31' W 009°23'1020.5
2017-May-25 01:00N 37°20' W 009°23'1020.5
2017-May-25 00:30N 37°10' W 009°22'1020.4
2017-May-25 00:00N 36°60' W 009°20'1819.5
2017-May-24 23:05N 36°44' W 009°09'220.7
2017-May-24 23:00N 36°44' W 009°07'1020.3
2017-May-24 22:30N 36°42' W 008°55'1220.8
2017-May-24 21:54N 36°41' W 008°39'820.5
2017-May-24 21:30N 36°40' W 008°29'1320.4
2017-May-24 20:53N 36°39' W 008°14'920.7
2017-May-24 20:28N 36°38' W 008°03'122 6.2
2017-May-24 00:55N 35°58' W 005°40'818.6
2017-May-24 00:30N 35°59' W 005°31'918.3
2017-May-24 00:00N 36°02' W 005°20'917.9
2017-May-23 23:30N 36°04' W 005°09'22317.5
2017-May-23 10:46N 37°22' W 000°49'520.3
2017-May-23 10:30N 37°26' W 000°44'1020.6
2017-May-23 10:00N 37°33' W 000°35'1020.4
2017-May-23 09:30N 37°41' W 000°27'2220.1
2017-May-23 08:26N 37°59' W 000°12'920.2
2017-May-23 08:00N 38°07' W 000°06'1720.6
2017-May-23 07:10N 38°21' E 000°05'421.0
2017-May-23 07:00N 38°24' E 000°08'5020.8
2017-May-23 04:36N 39°04' E 000°45'220.6
2017-May-23 04:30N 39°06' E 000°47'1020.7
2017-May-23 04:00N 39°14' E 000°55'1120.9
2017-May-23 03:30N 39°22' E 001°04'1020.7
2017-May-23 03:00N 39°30' E 001°12'1020.8
2017-May-23 02:30N 39°39' E 001°21'1020.7
2017-May-23 02:01N 39°46' E 001°29'1020.5
2017-May-23 01:30N 39°54' E 001°37'1020.7
2017-May-23 01:00N 40°03' E 001°46'1020.7
2017-May-23 00:30N 40°12' E 001°52'1020.4
2017-May-23 00:00N 40°20' E 002°00'1020.3
2017-May-22 23:30N 40°26' E 002°11'1020.6
2017-May-22 23:00N 40°34' E 002°19'1020.5
2017-May-22 22:30N 40°42' E 002°28'1020.2
2017-May-22 22:00N 40°50' E 002°36'1020.0
2017-May-22 21:30N 40°58' E 002°44'1020.3
2017-May-22 21:00N 41°06' E 002°53'1020.5
2017-May-22 20:30N 41°14' E 003°01'1020.6
2017-May-22 20:00N 41°22' E 003°10'1020.7
2017-May-22 19:30N 41°30' E 003°18'1020.8
2017-May-22 19:00N 41°38' E 003°27'1020.4
2017-May-22 18:30N 41°46' E 003°36'1020.3
2017-May-22 18:00N 41°54' E 003°44'1320.5
2017-May-22 17:23N 42°03' E 003°55'820.2
2017-May-22 17:00N 42°09' E 004°02'1020.4
2017-May-22 16:30N 42°17' E 004°10'1020.3
2017-May-22 16:00N 42°25' E 004°19'1120.5
2017-May-22 15:28N 42°34' E 004°28'920.4
2017-May-22 15:00N 42°41' E 004°36'2120.5
2017-May-22 14:00N 42°57' E 004°54'1020.2
2017-May-22 13:30N 43°05' E 005°03'1019.8
2017-May-22 13:00N 43°14' E 005°09'815.7
2017-May-22 12:30N 43°20' E 005°16'3 6.0
2017-May-22 12:00N 43°21' E 005°20'0 0.0
2017-May-22 11:30N 43°21' E 005°20'0 0.0
2017-May-22 11:00N 43°21' E 005°20'0 0.0
2017-May-22 10:30N 43°21' E 005°20'0 0.0
2017-May-22 09:30N 43°21' E 005°20'0 0.0
2017-May-22 07:06N 43°21' E 005°20'0 0.0
2017-May-22 06:36N 43°21' E 005°20'0 0.0
2017-May-22 06:24N 43°21' E 005°20'0 0.0
2017-May-22 05:45N 43°21' E 005°20'0 1.3
2017-May-22 05:30N 43°21' E 005°19'4 7.6
2017-May-22 05:00N 43°19' E 005°15'611.4
2017-May-22 04:28N 43°14' E 005°11'613.1
2017-May-22 03:59N 43°08' E 005°11'613.3
2017-May-22 03:30N 43°05' E 005°20'813.2
2017-May-22 02:55N 43°04' E 005°30'613.4
2017-May-22 02:31N 43°03' E 005°37'713.6
2017-May-22 02:00N 43°00' E 005°46'713.4
2017-May-22 01:30N 42°58' E 005°55'713.3
2017-May-22 01:00N 42°56' E 006°03'713.3
2017-May-22 00:29N 42°54' E 006°13'613.2
2017-May-22 00:00N 42°54' E 006°21'713.5
2017-May-21 23:29N 42°54' E 006°31'914.5
2017-May-21 22:53N 42°54' E 006°43'614.7
2017-May-21 22:28N 42°57' E 006°50'918.9
2017-May-21 21:59N 43°03' E 006°59'919.0
2017-May-21 21:30N 43°09' E 007°09'918.9
2017-May-21 21:00N 43°15' E 007°19'918.8
2017-May-21 20:30N 43°21' E 007°28'1018.8
2017-May-21 20:00N 43°27' E 007°38'918.9
2017-May-21 19:31N 43°33' E 007°48'918.8
2017-May-21 19:01N 43°40' E 007°57'1019.1
2017-May-21 18:31N 43°48' E 008°05'918.7
2017-May-21 18:01N 43°55' E 008°14'918.2
2017-May-21 17:31N 44°02' E 008°22'816.9
2017-May-21 17:01N 44°08' E 008°29'815.1
2017-May-21 16:31N 44°16' E 008°32'4 7.8
2017-May-21 16:00N 44°19' E 008°30'0 0.2
2017-May-21 15:28N 44°19' E 008°30'0 0.0
2017-May-21 14:58N 44°19' E 008°30'0 0.0
2017-May-21 14:28N 44°19' E 008°30'0 0.0
2017-May-21 13:30N 44°19' E 008°30'0 0.0
2017-May-21 13:00N 44°19' E 008°30'0 0.0
2017-May-21 12:30N 44°19' E 008°30'0 0.0
2017-May-21 12:00N 44°19' E 008°30'0 0.0
2017-May-21 11:30N 44°19' E 008°30'0 0.0
2017-May-21 11:00N 44°19' E 008°30'0 0.0
2017-May-21 10:24N 44°19' E 008°30'0 0.0
2017-May-21 10:00N 44°19' E 008°30'0 0.0
2017-May-21 09:26N 44°19' E 008°30'0 0.0
2017-May-21 08:56N 44°19' E 008°30'0 0.0
2017-May-21 08:31N 44°19' E 008°30'0 0.0
2017-May-21 08:01N 44°19' E 008°30'0 0.0
2017-May-21 07:31N 44°19' E 008°30'0 0.3
2017-May-21 07:00N 44°19' E 008°30'2 3.4
2017-May-21 06:31N 44°18' E 008°31'816.1
2017-May-21 06:00N 44°10' E 008°28'1020.0
2017-May-21 05:30N 44°02' E 008°20'1020.1
2017-May-21 05:00N 43°54' E 008°11'1020.0
2017-May-21 04:30N 43°48' E 008°00'1020.0
2017-May-21 04:00N 43°42' E 007°49'1019.9
2017-May-21 03:30N 43°36' E 007°38'1020.0
2017-May-21 03:00N 43°30' E 007°27'1020.0
2017-May-21 02:30N 43°24' E 007°16'1220.3
2017-May-21 01:56N 43°17' E 007°03'920.0
2017-May-21 01:30N 43°12' E 006°54'1019.8
2017-May-21 01:00N 43°06' E 006°43'2819.3
2017-May-20 23:34N 42°51' E 006°11'220.0
2017-May-20 23:27N 42°50' E 006°08'2419.7
2017-May-20 22:15N 42°39' E 005°40'819.9
2017-May-20 21:52N 42°35' E 005°31'720.3
2017-May-20 21:30N 42°31' E 005°22'1120.1
2017-May-20 20:59N 42°26' E 005°10'1020.2
2017-May-20 20:29N 42°22' E 004°58'13620.3
2017-May-20 13:48N 41°16' E 002°17'19 2.0
2017-May-20 04:19N 41°01' E 002°01'820.2
2017-May-20 03:55N 40°54' E 001°57'820.2
2017-May-20 03:30N 40°47' E 001°52'1020.4
2017-May-20 03:00N 40°38' E 001°45'1020.7
2017-May-20 02:31N 40°29' E 001°39'1020.8
2017-May-20 02:00N 40°19' E 001°33'1020.6
2017-May-20 01:30N 40°10' E 001°27'1020.5
2017-May-20 01:00N 40°01' E 001°21'1020.7
2017-May-20 00:30N 39°52' E 001°15'14820.7
2017-May-19 17:23N 37°44' W 000°21'821.2
2017-May-19 17:00N 37°38' W 000°27'1121.1
2017-May-19 16:29N 37°29' W 000°36'1020.8
2017-May-19 16:00N 37°23' W 000°45'23015.8
2017-May-19 01:29N 36°00' W 005°13'1122.9
2017-May-19 01:01N 35°58' W 005°26'44718.8
2017-May-18 01:11N 30°50' W 011°54'918.1
2017-May-18 00:42N 30°42' W 012°00'1518.7
2017-May-17 23:55N 30°30' W 012°10'818.8
2017-May-17 23:30N 30°24' W 012°15'1019.1
2017-May-17 23:00N 30°16' W 012°21'919.2
2017-May-17 22:30N 30°08' W 012°28'1019.2
2017-May-17 22:00N 30°00' W 012°34'1019.3
2017-May-17 21:30N 29°52' W 012°40'1019.4
2017-May-17 21:00N 29°44' W 012°47'1019.6
2017-May-17 20:30N 29°36' W 012°53'1019.4
2017-May-17 20:00N 29°28' W 012°59'1418.7
2017-May-17 19:16N 29°17' W 013°08'518.9
2017-May-17 19:00N 29°13' W 013°12'1219.4
2017-May-17 18:24N 29°03' W 013°19'819.5
2017-May-17 18:00N 28°57' W 013°24'1019.6
2017-May-17 17:30N 28°49' W 013°31'1019.7
2017-May-17 17:00N 28°41' W 013°38'1318.5
2017-May-17 16:18N 28°31' W 013°47'6 0.6
2017-May-17 05:29N 28°25' W 013°47'713.1
2017-May-17 04:58N 28°18' W 013°47'613.0
2017-May-17 04:30N 28°12' W 013°46'612.6
2017-May-17 04:00N 28°07' W 013°51'713.5
2017-May-17 03:30N 28°03' W 013°57'713.3
2017-May-17 03:00N 27°60' W 014°03'713.4
2017-May-17 02:30N 27°56' W 014°10'713.2
2017-May-17 02:00N 27°53' W 014°16'713.1
2017-May-17 01:30N 27°50' W 014°23'713.3
2017-May-17 01:00N 27°48' W 014°30'713.1
2017-May-17 00:30N 27°46' W 014°37'713.0
2017-May-17 00:00N 27°44' W 014°44'612.7
2017-May-16 23:30N 27°42' W 014°51'612.8
2017-May-16 23:00N 27°41' W 014°58'612.8
2017-May-16 22:30N 27°41' W 015°05'611.4
2017-May-16 22:00N 27°46' W 015°08'714.7
2017-May-16 21:31N 27°53' W 015°06'714.1
2017-May-16 21:01N 27°59' W 015°03'612.0
2017-May-16 20:30N 28°05' W 015°04'713.6
2017-May-16 20:00N 28°09' W 015°11'713.8
2017-May-16 19:30N 28°12' W 015°18'713.2
2017-May-16 19:00N 28°15' W 015°24'713.3
2017-May-16 18:30N 28°15' W 015°32'713.9
2017-May-16 18:00N 28°15' W 015°40'714.0
2017-May-16 17:30N 28°14' W 015°48'1112.3
2017-May-16 16:35N 28°17' W 016°00'413.2
2017-May-16 16:16N 28°20' W 016°04'813.3
2017-May-16 15:39N 28°26' W 016°10'313.4
2017-May-16 15:27N 28°28' W 016°12'2 2.4
2017-May-16 14:31N 28°28' W 016°14'0 0.0
2017-May-16 13:46N 28°28' W 016°14'0 0.0
2017-May-16 13:19N 28°28' W 016°14'0 0.0
2017-May-16 12:49N 28°28' W 016°14'0 0.0
2017-May-16 12:22N 28°28' W 016°14'0 0.0
2017-May-16 11:52N 28°28' W 016°14'0 0.0
2017-May-16 11:22N 28°28' W 016°14'0 0.0
2017-May-16 10:52N 28°28' W 016°14'0 0.0
2017-May-16 10:25N 28°28' W 016°14'0 0.0
2017-May-16 09:55N 28°28' W 016°14'0 0.0
2017-May-16 09:22N 28°28' W 016°14'0 0.0
2017-May-16 08:55N 28°28' W 016°14'0 0.0
2017-May-16 08:25N 28°28' W 016°14'0 0.0
2017-May-16 07:52N 28°28' W 016°14'0 0.0
2017-May-16 07:30N 28°28' W 016°14'0 0.0
2017-May-16 06:33N 28°28' W 016°14'0 0.0
2017-May-16 06:18N 28°28' W 016°14'0 0.0
2017-May-16 06:00N 28°28' W 016°14'0 0.2
2017-May-16 05:30N 28°28' W 016°14'2 3.8
2017-May-16 04:59N 28°28' W 016°12'612.9
2017-May-16 04:30N 28°29' W 016°05'713.7
2017-May-16 04:00N 28°33' W 015°59'713.7
2017-May-16 03:30N 28°37' W 015°52'713.7
2017-May-16 03:00N 28°40' W 015°46'713.6
2017-May-16 02:30N 28°42' W 015°38'713.7
2017-May-16 02:00N 28°42' W 015°30'713.8
2017-May-16 01:30N 28°43' W 015°23'713.6
2017-May-16 01:00N 28°44' W 015°15'713.4
2017-May-16 00:30N 28°45' W 015°07'713.2
2017-May-16 00:00N 28°46' W 014°60'713.0
2017-May-15 23:30N 28°47' W 014°53'713.1
2017-May-15 23:01N 28°48' W 014°45'713.0
2017-May-15 22:31N 28°49' W 014°38'713.2
2017-May-15 22:00N 28°50' W 014°30'713.3
2017-May-15 21:30N 28°51' W 014°23'713.6
2017-May-15 21:00N 28°52' W 014°15'613.0
2017-May-15 20:31N 28°51' W 014°08'713.5
2017-May-15 20:00N 28°48' W 014°01'714.1
2017-May-15 19:30N 28°48' W 013°53'714.5
2017-May-15 19:00N 28°48' W 013°44'714.2
2017-May-15 18:30N 28°52' W 013°37'8 7.1
2017-May-15 17:24N 28°58' W 013°32'0 0.0
2017-May-15 15:27N 28°58' W 013°32'0 0.0
2017-May-15 10:57N 28°58' W 013°32'  
Track history (hours):
 
Tides and Currents Weather Stations Pressure Air Temp Water Temp Dewpoint Dewpoint Depression Visibility Wind Speed Wind Dir Waves Ship Positions

Costa Mediterranea

Last reported at 2017-May-25 10:24 UTC. Time now 2017-May-25 10:32 UTC.
Position N 38°43' W 009°08'.

Length 293 m; draft 8 m.

Type: Passenger vessel. MMSI: 247088200.

Date/timePositionNaut miles runAvg speedWind from/ knotsBaromVisibWave heightAir tempDewpointWater temp
2017-May-25 10:24N 38°43' W 009°08'0 0.0
2017-May-25 10:00N 38°43' W 009°08'0 0.0
2017-May-25 09:30N 38°43' W 009°08'0 0.0
2017-May-25 08:59N 38°43' W 009°08'0 0.0
2017-May-25 08:29N 38°43' W 009°08'0 0.0
2017-May-25 07:59N 38°43' W 009°08'0 0.0
2017-May-25 07:27N 38°43' W 009°08'0 0.0
2017-May-25 06:59N 38°43' W 009°08'0 0.0
2017-May-25 06:29N 38°43' W 009°08'0 0.3
2017-May-25 06:00N 38°42' W 009°08'4 7.4
2017-May-25 05:28N 38°41' W 009°12'511.3
2017-May-25 05:00N 38°40' W 009°19'918.7
2017-May-25 04:30N 38°32' W 009°25'1020.6
2017-May-25 04:00N 38°21' W 009°27'1020.2
2017-May-25 03:30N 38°11' W 009°25'1020.4
2017-May-25 03:00N 38°01' W 009°24'1020.6
2017-May-25 02:30N 37°51' W 009°24'1020.4
2017-May-25 02:00N 37°41' W 009°23'1020.4
2017-May-25 01:30N 37°31' W 009°23'1020.5
2017-May-25 01:00N 37°20' W 009°23'1020.5
2017-May-25 00:30N 37°10' W 009°22'1020.4
2017-May-25 00:00N 36°60' W 009°20'1819.5
2017-May-24 23:05N 36°44' W 009°09'220.7
2017-May-24 23:00N 36°44' W 009°07'1020.3
2017-May-24 22:30N 36°42' W 008°55'1220.8
2017-May-24 21:54N 36°41' W 008°39'820.5
2017-May-24 21:30N 36°40' W 008°29'1320.4
2017-May-24 20:53N 36°39' W 008°14'920.7
2017-May-24 20:28N 36°38' W 008°03'122 6.2
2017-May-24 00:55N 35°58' W 005°40'818.6
2017-May-24 00:30N 35°59' W 005°31'918.3
2017-May-24 00:00N 36°02' W 005°20'917.9
2017-May-23 23:30N 36°04' W 005°09'22317.5
2017-May-23 10:46N 37°22' W 000°49'520.3
2017-May-23 10:30N 37°26' W 000°44'1020.6
2017-May-23 10:00N 37°33' W 000°35'1020.4
2017-May-23 09:30N 37°41' W 000°27'2220.1
2017-May-23 08:26N 37°59' W 000°12'920.2
2017-May-23 08:00N 38°07' W 000°06'1720.6
2017-May-23 07:10N 38°21' E 000°05'421.0
2017-May-23 07:00N 38°24' E 000°08'5020.8
2017-May-23 04:36N 39°04' E 000°45'220.6
2017-May-23 04:30N 39°06' E 000°47'1020.7
2017-May-23 04:00N 39°14' E 000°55'1120.9
2017-May-23 03:30N 39°22' E 001°04'1020.7
2017-May-23 03:00N 39°30' E 001°12'1020.8
2017-May-23 02:30N 39°39' E 001°21'1020.7
2017-May-23 02:01N 39°46' E 001°29'1020.5
2017-May-23 01:30N 39°54' E 001°37'1020.7
2017-May-23 01:00N 40°03' E 001°46'1020.7
2017-May-23 00:30N 40°12' E 001°52'1020.4
2017-May-23 00:00N 40°20' E 002°00'1020.3
2017-May-22 23:30N 40°26' E 002°11'1020.6
2017-May-22 23:00N 40°34' E 002°19'1020.5
2017-May-22 22:30N 40°42' E 002°28'1020.2
2017-May-22 22:00N 40°50' E 002°36'1020.0
2017-May-22 21:30N 40°58' E 002°44'1020.3
2017-May-22 21:00N 41°06' E 002°53'1020.5
2017-May-22 20:30N 41°14' E 003°01'1020.6
2017-May-22 20:00N 41°22' E 003°10'1020.7
2017-May-22 19:30N 41°30' E 003°18'1020.8
2017-May-22 19:00N 41°38' E 003°27'1020.4
2017-May-22 18:30N 41°46' E 003°36'1020.3
2017-May-22 18:00N 41°54' E 003°44'1320.5
2017-May-22 17:23N 42°03' E 003°55'820.2
2017-May-22 17:00N 42°09' E 004°02'1020.4
2017-May-22 16:30N 42°17' E 004°10'1020.3
2017-May-22 16:00N 42°25' E 004°19'1120.5
2017-May-22 15:28N 42°34' E 004°28'920.4
2017-May-22 15:00N 42°41' E 004°36'2120.5
2017-May-22 14:00N 42°57' E 004°54'1020.2
2017-May-22 13:30N 43°05' E 005°03'1019.8
2017-May-22 13:00N 43°14' E 005°09'815.7
2017-May-22 12:30N 43°20' E 005°16'3 6.0
2017-May-22 12:00N 43°21' E 005°20'0 0.0
2017-May-22 11:30N 43°21' E 005°20'0 0.0
2017-May-22 11:00N 43°21' E 005°20'0 0.0
2017-May-22 10:30N 43°21' E 005°20'0 0.0
2017-May-22 09:30N 43°21' E 005°20'0 0.0
2017-May-22 07:06N 43°21' E 005°20'0 0.0
2017-May-22 06:36N 43°21' E 005°20'0 0.0
2017-May-22 06:24N 43°21' E 005°20'0 0.0
2017-May-22 05:45N 43°21' E 005°20'0 1.3
2017-May-22 05:30N 43°21' E 005°19'4 7.6
2017-May-22 05:00N 43°19' E 005°15'611.4
2017-May-22 04:28N 43°14' E 005°11'613.1
2017-May-22 03:59N 43°08' E 005°11'613.3
2017-May-22 03:30N 43°05' E 005°20'813.2
2017-May-22 02:55N 43°04' E 005°30'613.4
2017-May-22 02:31N 43°03' E 005°37'713.6
2017-May-22 02:00N 43°00' E 005°46'713.4
2017-May-22 01:30N 42°58' E 005°55'713.3
2017-May-22 01:00N 42°56' E 006°03'713.3
2017-May-22 00:29N 42°54' E 006°13'613.2
2017-May-22 00:00N 42°54' E 006°21'713.5
2017-May-21 23:29N 42°54' E 006°31'914.5
2017-May-21 22:53N 42°54' E 006°43'614.7
2017-May-21 22:28N 42°57' E 006°50'918.9
2017-May-21 21:59N 43°03' E 006°59'919.0
2017-May-21 21:30N 43°09' E 007°09'918.9
2017-May-21 21:00N 43°15' E 007°19'918.8
2017-May-21 20:30N 43°21' E 007°28'1018.8
2017-May-21 20:00N 43°27' E 007°38'918.9
2017-May-21 19:31N 43°33' E 007°48'918.8
2017-May-21 19:01N 43°40' E 007°57'1019.1
2017-May-21 18:31N 43°48' E 008°05'918.7
2017-May-21 18:01N 43°55' E 008°14'918.2
2017-May-21 17:31N 44°02' E 008°22'816.9
2017-May-21 17:01N 44°08' E 008°29'815.1
2017-May-21 16:31N 44°16' E 008°32'4 7.8
2017-May-21 16:00N 44°19' E 008°30'0 0.2
2017-May-21 15:28N 44°19' E 008°30'0 0.0
2017-May-21 14:58N 44°19' E 008°30'0 0.0
2017-May-21 14:28N 44°19' E 008°30'0 0.0
2017-May-21 13:30N 44°19' E 008°30'0 0.0
2017-May-21 13:00N 44°19' E 008°30'0 0.0
2017-May-21 12:30N 44°19' E 008°30'0 0.0
2017-May-21 12:00N 44°19' E 008°30'0 0.0
2017-May-21 11:30N 44°19' E 008°30'0 0.0
2017-May-21 11:00N 44°19' E 008°30'0 0.0
2017-May-21 10:24N 44°19' E 008°30'0 0.0
2017-May-21 10:00N 44°19' E 008°30'0 0.0
2017-May-21 09:26N 44°19' E 008°30'0 0.0
2017-May-21 08:56N 44°19' E 008°30'0 0.0
2017-May-21 08:31N 44°19' E 008°30'0 0.0
2017-May-21 08:01N 44°19' E 008°30'0 0.0
2017-May-21 07:31N 44°19' E 008°30'0 0.3
2017-May-21 07:00N 44°19' E 008°30'2 3.4
2017-May-21 06:31N 44°18' E 008°31'816.1
2017-May-21 06:00N 44°10' E 008°28'1020.0
2017-May-21 05:30N 44°02' E 008°20'1020.1
2017-May-21 05:00N 43°54' E 008°11'1020.0
2017-May-21 04:30N 43°48' E 008°00'1020.0
2017-May-21 04:00N 43°42' E 007°49'1019.9
2017-May-21 03:30N 43°36' E 007°38'1020.0
2017-May-21 03:00N 43°30' E 007°27'1020.0
2017-May-21 02:30N 43°24' E 007°16'1220.3
2017-May-21 01:56N 43°17' E 007°03'920.0
2017-May-21 01:30N 43°12' E 006°54'1019.8
2017-May-21 01:00N 43°06' E 006°43'2819.3
2017-May-20 23:34N 42°51' E 006°11'220.0
2017-May-20 23:27N 42°50' E 006°08'2419.7
2017-May-20 22:15N 42°39' E 005°40'819.9
2017-May-20 21:52N 42°35' E 005°31'720.3
2017-May-20 21:30N 42°31' E 005°22'1120.1
2017-May-20 20:59N 42°26' E 005°10'1020.2
2017-May-20 20:29N 42°22' E 004°58'13620.3
2017-May-20 13:48N 41°16' E 002°17'19 2.0
2017-May-20 04:19N 41°01' E 002°01'820.2
2017-May-20 03:55N 40°54' E 001°57'820.2
2017-May-20 03:30N 40°47' E 001°52'1020.4
2017-May-20 03:00N 40°38' E 001°45'1020.7
2017-May-20 02:31N 40°29' E 001°39'1020.8
2017-May-20 02:00N 40°19' E 001°33'1020.6
2017-May-20 01:30N 40°10' E 001°27'1020.5
2017-May-20 01:00N 40°01' E 001°21'1020.7
2017-May-20 00:30N 39°52' E 001°15'14820.7
2017-May-19 17:23N 37°44' W 000°21'821.2
2017-May-19 17:00N 37°38' W 000°27'1121.1
2017-May-19 16:29N 37°29' W 000°36'1020.8
2017-May-19 16:00N 37°23' W 000°45'23015.8
2017-May-19 01:29N 36°00' W 005°13'1122.9
2017-May-19 01:01N 35°58' W 005°26'44718.8
2017-May-18 01:11N 30°50' W 011°54'918.1
2017-May-18 00:42N 30°42' W 012°00'1518.7
2017-May-17 23:55N 30°30' W 012°10'818.8
2017-May-17 23:30N 30°24' W 012°15'1019.1
2017-May-17 23:00N 30°16' W 012°21'919.2
2017-May-17 22:30N 30°08' W 012°28'1019.2
2017-May-17 22:00N 30°00' W 012°34'1019.3
2017-May-17 21:30N 29°52' W 012°40'1019.4
2017-May-17 21:00N 29°44' W 012°47'1019.6
2017-May-17 20:30N 29°36' W 012°53'1019.4
2017-May-17 20:00N 29°28' W 012°59'1418.7
2017-May-17 19:16N 29°17' W 013°08'518.9
2017-May-17 19:00N 29°13' W 013°12'1219.4
2017-May-17 18:24N 29°03' W 013°19'819.5
2017-May-17 18:00N 28°57' W 013°24'1019.6
2017-May-17 17:30N 28°49' W 013°31'1019.7
2017-May-17 17:00N 28°41' W 013°38'1318.5
2017-May-17 16:18N 28°31' W 013°47'6 0.6
2017-May-17 05:29N 28°25' W 013°47'713.1
2017-May-17 04:58N 28°18' W 013°47'613.0
2017-May-17 04:30N 28°12' W 013°46'612.6
2017-May-17 04:00N 28°07' W 013°51'713.5
2017-May-17 03:30N 28°03' W 013°57'713.3
2017-May-17 03:00N 27°60' W 014°03'713.4
2017-May-17 02:30N 27°56' W 014°10'713.2
2017-May-17 02:00N 27°53' W 014°16'713.1
2017-May-17 01:30N 27°50' W 014°23'713.3
2017-May-17 01:00N 27°48' W 014°30'713.1
2017-May-17 00:30N 27°46' W 014°37'713.0
2017-May-17 00:00N 27°44' W 014°44'612.7
2017-May-16 23:30N 27°42' W 014°51'612.8
2017-May-16 23:00N 27°41' W 014°58'612.8
2017-May-16 22:30N 27°41' W 015°05'611.4
2017-May-16 22:00N 27°46' W 015°08'714.7
2017-May-16 21:31N 27°53' W 015°06'714.1
2017-May-16 21:01N 27°59' W 015°03'612.0
2017-May-16 20:30N 28°05' W 015°04'713.6
2017-May-16 20:00N 28°09' W 015°11'713.8
2017-May-16 19:30N 28°12' W 015°18'713.2
2017-May-16 19:00N 28°15' W 015°24'713.3
2017-May-16 18:30N 28°15' W 015°32'713.9
2017-May-16 18:00N 28°15' W 015°40'714.0
2017-May-16 17:30N 28°14' W 015°48'1112.3
2017-May-16 16:35N 28°17' W 016°00'413.2
2017-May-16 16:16N 28°20' W 016°04'813.3
2017-May-16 15:39N 28°26' W 016°10'313.4
2017-May-16 15:27N 28°28' W 016°12'2 2.4
2017-May-16 14:31N 28°28' W 016°14'0 0.0
2017-May-16 13:46N 28°28' W 016°14'0 0.0
2017-May-16 13:19N 28°28' W 016°14'0 0.0
2017-May-16 12:49N 28°28' W 016°14'0 0.0
2017-May-16 12:22N 28°28' W 016°14'0 0.0
2017-May-16 11:52N 28°28' W 016°14'0 0.0
2017-May-16 11:22N 28°28' W 016°14'0 0.0
2017-May-16 10:52N 28°28' W 016°14'0 0.0
2017-May-16 10:25N 28°28' W 016°14'0 0.0
2017-May-16 09:55N 28°28' W 016°14'0 0.0
2017-May-16 09:22N 28°28' W 016°14'0 0.0
2017-May-16 08:55N 28°28' W 016°14'0 0.0
2017-May-16 08:25N 28°28' W 016°14'0 0.0
2017-May-16 07:52N 28°28' W 016°14'0 0.0
2017-May-16 07:30N 28°28' W 016°14'0 0.0
2017-May-16 06:33N 28°28' W 016°14'0 0.0
2017-May-16 06:18N 28°28' W 016°14'0 0.0
2017-May-16 06:00N 28°28' W 016°14'0 0.2
2017-May-16 05:30N 28°28' W 016°14'2 3.8
2017-May-16 04:59N 28°28' W 016°12'612.9
2017-May-16 04:30N 28°29' W 016°05'713.7
2017-May-16 04:00N 28°33' W 015°59'713.7
2017-May-16 03:30N 28°37' W 015°52'713.7
2017-May-16 03:00N 28°40' W 015°46'713.6
2017-May-16 02:30N 28°42' W 015°38'713.7
2017-May-16 02:00N 28°42' W 015°30'713.8
2017-May-16 01:30N 28°43' W 015°23'713.6
2017-May-16 01:00N 28°44' W 015°15'713.4
2017-May-16 00:30N 28°45' W 015°07'713.2
2017-May-16 00:00N 28°46' W 014°60'713.0
2017-May-15 23:30N 28°47' W 014°53'713.1
2017-May-15 23:01N 28°48' W 014°45'713.0
2017-May-15 22:31N 28°49' W 014°38'713.2
2017-May-15 22:00N 28°50' W 014°30'713.3
2017-May-15 21:30N 28°51' W 014°23'713.6
2017-May-15 21:00N 28°52' W 014°15'613.0
2017-May-15 20:31N 28°51' W 014°08'713.5
2017-May-15 20:00N 28°48' W 014°01'714.1
2017-May-15 19:30N 28°48' W 013°53'714.5
2017-May-15 19:00N 28°48' W 013°44'714.2
2017-May-15 18:30N 28°52' W 013°37'8 7.1
2017-May-15 17:24N 28°58' W 013°32'0 0.0
2017-May-15 15:27N 28°58' W 013°32'0 0.0
2017-May-15 10:57N 28°58' W 013°32'  

Dump ship's entire track history